Time;durP1;ratioP1;P1;durP2;ratioP2;P2;SDS_P1;SDS_P2;PMS_P1;PMS_P2;Temp;Humidity;BMP_temperature;BMP_pressure;BME280_temperature;BME280_humidity;BME280_pressure;Samples;Min_cycle;Max_cycle;Signal;HPM_P1;HPM_P2
2024/01/02 00:00:48;;;;;;;64.50;24.00;;;;;;;3.64;100.00;98840.63;109144;1260;61033;-61
2024/01/02 00:03:41;;;;;;;61.50;23.80;;;;;;;3.66;100.00;98845.89;109044;1260;75069;-60
2024/01/02 00:06:29;;;;;;;61.50;24.50;;;;;;;3.68;100.00;98846.33;109116;1260;66895;-61
2024/01/02 00:09:16;;;;;;;64.10;25.00;;;;;;;3.67;100.00;98847.74;109077;1260;72503;-61
2024/01/02 00:12:07;;;;;;;57.60;23.30;;;;;;;3.66;100.00;98846.96;109091;1260;58056;-61
2024/01/02 00:14:55;;;;;;;56.00;21.20;;;;;;;3.61;100.00;98842.04;109122;1260;60339;-61
2024/01/02 00:17:43;;;;;;;59.50;21.70;;;;;;;3.58;100.00;98843.97;109042;1261;72886;-60
2024/01/02 00:20:31;;;;;;;61.60;23.70;;;;;;;3.56;100.00;98847.65;109042;1259;67603;-61
2024/01/02 00:23:19;;;;;;;61.20;24.10;;;;;;;3.54;100.00;98846.16;108954;1260;72816;-60
2024/01/02 00:26:07;;;;;;;61.70;23.70;;;;;;;3.56;100.00;98844.48;109024;1260;58150;-61
2024/01/02 00:28:56;;;;;;;66.00;24.90;;;;;;;3.57;100.00;98839.98;108985;1260;60322;-59
2024/01/02 00:31:44;;;;;;;63.10;24.20;;;;;;;3.57;100.00;98837.75;109022;1260;74834;-60
2024/01/02 00:34:32;;;;;;;60.70;22.40;;;;;;;3.57;100.00;98838.60;108982;1257;68883;-61
2024/01/02 00:37:20;;;;;;;59.40;23.40;;;;;;;3.55;100.00;98836.84;109110;1260;72380;-60
2024/01/02 00:40:09;;;;;;;60.00;23.50;;;;;;;3.57;100.00;98834.94;109133;1259;59153;-60
2024/01/02 00:42:56;;;;;;;62.50;24.00;;;;;;;3.62;100.00;98828.30;109049;1260;60085;-60
2024/01/02 00:45:44;;;;;;;56.60;22.60;;;;;;;3.63;100.00;98823.18;109066;1258;74589;-60
2024/01/02 00:48:32;;;;;;;55.20;22.10;;;;;;;3.63;100.00;98819.61;109126;1260;68984;-61
2024/01/02 00:51:20;;;;;;;61.30;23.20;;;;;;;3.63;100.00;98816.31;109078;1262;71802;-60
2024/01/02 00:54:07;;;;;;;58.50;22.90;;;;;;;3.62;100.00;98816.36;109064;1259;58086;-61
2024/01/02 00:56:55;;;;;;;54.80;21.10;;;;;;;3.62;100.00;98820.61;108874;1261;60100;-60
2024/01/02 00:59:43;;;;;;;50.70;19.70;;;;;;;3.59;100.00;98815.34;108965;1260;74846;-61
2024/01/02 01:02:31;;;;;;;60.40;23.80;;;;;;;3.55;100.00;98808.22;109096;1259;66594;-63
2024/01/02 01:05:18;;;;;;;54.00;22.60;;;;;;;3.53;100.00;98811.70;109042;1259;72988;-62
2024/01/02 01:08:06;;;;;;;56.00;23.60;;;;;;;3.52;100.00;98819.19;109037;1260;59769;-62
2024/01/02 01:10:54;;;;;;;57.20;22.70;;;;;;;3.52;100.00;98823.36;108922;1260;58217;-60
2024/01/02 01:13:42;;;;;;;57.10;23.00;;;;;;;3.53;100.00;98830.10;109044;1260;74663;-61
2024/01/02 01:16:29;;;;;;;64.40;25.10;;;;;;;3.54;100.00;98830.77;109012;1259;66881;-61
2024/01/02 01:19:17;;;;;;;59.40;23.50;;;;;;;3.53;100.00;98831.89;108955;1260;72818;-60
2024/01/02 01:22:04;;;;;;;64.70;24.40;;;;;;;3.52;100.00;98832.62;108296;1259;1002450;-62
2024/01/02 01:24:52;;;;;;;61.20;23.90;;;;;;;3.55;100.00;98828.42;109016;1260;60086;-60
2024/01/02 01:27:40;;;;;;;60.10;23.80;;;;;;;3.56;100.00;98828.55;109035;1259;72761;-61
2024/01/02 01:30:27;;;;;;;60.30;23.60;;;;;;;3.55;100.00;98825.10;108963;1259;68117;-60
2024/01/02 01:33:15;;;;;;;57.50;24.60;;;;;;;3.53;100.00;98824.86;109029;1259;71417;-62
2024/01/02 01:36:03;;;;;;;61.50;24.00;;;;;;;3.52;100.00;98831.81;108143;1259;1002055;-60
2024/01/02 01:38:51;;;;;;;56.10;23.10;;;;;;;3.50;100.00;98835.44;109076;1260;59139;-60
2024/01/02 01:41:38;;;;;;;65.20;23.70;;;;;;;3.49;100.00;98840.02;108997;1259;73484;-61
2024/01/02 01:44:26;;;;;;;52.80;21.50;;;;;;;3.51;100.00;98838.31;109064;1259;66659;-60
2024/01/02 01:47:14;;;;;;;52.20;21.80;;;;;;;3.51;100.00;98840.05;108973;1260;72013;-60
2024/01/02 01:50:02;;;;;;;52.90;21.80;;;;;;;3.52;100.00;98837.94;109059;1259;59349;-59
2024/01/02 01:52:50;;;;;;;48.60;20.10;;;;;;;3.53;100.00;98831.87;109011;1258;61650;-62
2024/01/02 01:55:38;;;;;;;53.90;21.40;;;;;;;3.57;100.00;98837.23;104508;1257;1002897;-61
2024/01/02 01:58:27;;;;;;;44.10;20.00;;;;;;;3.58;100.00;98838.02;109064;1258;68735;-61
2024/01/02 02:01:15;;;;;;;51.00;19.50;;;;;;;3.56;100.00;98837.13;108972;1259;71341;-60
2024/01/02 02:04:03;;;;;;;43.30;18.90;;;;;;;3.59;100.00;98840.96;108977;1261;58173;-60
2024/01/02 02:06:52;;;;;;;49.20;21.20;;;;;;;3.57;100.00;98839.27;109040;1258;60416;-61
2024/01/02 02:09:40;;;;;;;52.40;21.30;;;;;;;3.54;100.00;98833.02;108989;1260;74495;-60
2024/01/02 02:12:28;;;;;;;49.20;19.90;;;;;;;3.56;100.00;98830.61;109102;1260;66883;-59
2024/01/02 02:15:16;;;;;;;48.80;21.50;;;;;;;3.57;100.00;98834.73;108979;1257;73573;-60
2024/01/02 02:18:05;;;;;;;52.50;21.20;;;;;;;3.59;100.00;98830.08;109103;1257;58325;-60
2024/01/02 02:20:55;;;;;;;53.40;21.70;;;;;;;3.60;100.00;98826.34;109052;1257;60152;-60
2024/01/02 02:23:43;;;;;;;66.80;27.60;;;;;;;3.59;100.00;98826.20;109029;1259;73803;-60
2024/01/02 02:26:30;;;;;;;59.10;22.90;;;;;;;3.61;100.00;98829.63;109020;1257;66716;-60
2024/01/02 02:29:18;;;;;;;56.60;23.00;;;;;;;3.60;100.00;98829.30;108978;1258;72901;-60
2024/01/02 02:32:06;;;;;;;54.40;20.50;;;;;;;3.62;100.00;98826.19;109110;1259;59760;-60
2024/01/02 02:34:54;;;;;;;55.90;22.60;;;;;;;3.63;100.00;98828.07;109094;1257;61199;-60
2024/01/02 02:37:41;;;;;;;48.30;20.00;;;;;;;3.63;100.00;98824.53;109066;1257;75009;-61
2024/01/02 02:40:29;;;;;;;54.90;21.50;;;;;;;3.64;100.00;98823.92;109112;1260;68002;-61
2024/01/02 02:43:16;;;;;;;44.60;18.90;;;;;;;3.62;100.00;98818.61;109115;1258;73697;-61
2024/01/02 02:46:04;;;;;;;39.60;17.60;;;;;;;3.57;100.00;98819.84;109029;1259;58125;-61
2024/01/02 02:48:52;;;;;;;35.50;14.00;;;;;;;3.49;100.00;98825.16;109019;1259;61101;-60
2024/01/02 02:51:39;;;;;;;32.70;14.40;;;;;;;3.42;100.00;98822.80;109009;1260;74528;-60
2024/01/02 02:54:27;;;;;;;30.70;12.70;;;;;;;3.34;100.00;98822.95;109110;1258;67627;-60
2024/01/02 02:57:15;;;;;;;31.90;13.00;;;;;;;3.30;100.00;98825.89;108979;1258;73709;-60
2024/01/02 03:00:04;;;;;;;28.60;12.50;;;;;;;3.26;100.00;98828.48;109027;1260;58057;-61
2024/01/02 03:02:52;;;;;;;30.90;12.80;;;;;;;3.24;100.00;98824.05;109041;1257;60004;-63
2024/01/02 03:05:39;;;;;;;27.80;10.80;;;;;;;3.21;100.00;98824.59;109137;1259;73964;-61
2024/01/02 03:08:27;;;;;;;25.60;10.00;;;;;;;3.19;100.00;98824.88;109092;1258;68940;-60
2024/01/02 03:11:15;;;;;;;24.00;9.80;;;;;;;3.17;100.00;98823.95;109096;1258;72365;-60
2024/01/02 03:14:02;;;;;;;23.90;9.30;;;;;;;3.13;100.00;98823.70;109113;1259;60280;-60
2024/01/02 03:16:50;;;;;;;21.40;7.90;;;;;;;3.09;100.00;98825.16;109106;1258;61453;-61
2024/01/02 03:19:38;;;;;;;19.40;7.70;;;;;;;3.06;100.00;98824.35;109056;1260;74453;-63
2024/01/02 03:22:26;;;;;;;18.10;7.40;;;;;;;3.03;100.00;98828.38;109118;1260;66267;-61
2024/01/02 03:25:13;;;;;;;17.50;7.50;;;;;;;3.01;100.00;98826.05;109111;1258;71344;-60
2024/01/02 03:28:01;;;;;;;15.90;6.30;;;;;;;3.00;100.00;98829.48;109075;1259;58129;-60
2024/01/02 03:30:48;;;;;;;13.70;4.70;;;;;;;2.97;100.00;98831.04;109109;1258;59056;-59
2024/01/02 03:33:37;;;;;;;13.10;5.10;;;;;;;2.89;100.00;98830.36;109127;1259;73793;-59
2024/01/02 03:36:24;;;;;;;13.90;6.00;;;;;;;2.84;100.00;98833.50;109107;1259;68926;-60
2024/01/02 03:39:12;;;;;;;13.30;5.60;;;;;;;2.77;100.00;98834.45;109129;1260;70815;-59
2024/01/02 03:41:59;;;;;;;12.30;5.40;;;;;;;2.74;100.00;98834.81;109121;1258;58133;-60
2024/01/02 03:44:48;;;;;;;14.00;5.70;;;;;;;2.72;100.00;98837.23;109128;1259;60479;-61
2024/01/02 03:47:36;;;;;;;13.60;4.90;;;;;;;2.70;100.00;98832.95;104535;1258;1002965;-61
2024/01/02 03:50:23;;;;;;;13.30;5.10;;;;;;;2.68;100.00;98839.43;109030;1259;68877;-62
2024/01/02 03:53:12;;;;;;;12.50;4.60;;;;;;;2.68;100.00;98834.33;108677;1265;72618;-59
2024/01/02 03:56:00;;;;;;;14.60;5.60;;;;;;;2.67;100.00;98831.97;108696;1264;58141;-61
2024/01/02 03:58:48;;;;;;;12.40;5.60;;;;;;;2.65;100.00;98832.42;108716;1265;59223;-60
2024/01/02 04:01:43;;;;;;;14.20;5.70;;;;;;;2.64;100.00;98835.65;108712;1265;74096;-60
2024/01/02 04:04:31;;;;;;;12.90;5.20;;;;;;;2.63;100.00;98833.77;108652;1264;68326;-59
2024/01/02 04:07:18;;;;;;;14.30;5.20;;;;;;;2.62;100.00;98833.15;108691;1265;74067;-61
2024/01/02 04:10:07;;;;;;;12.20;4.70;;;;;;;2.61;100.00;98832.52;108378;1265;60775;-61
2024/01/02 04:12:55;;;;;;;10.10;3.90;;;;;;;2.58;100.00;98834.46;108746;1265;60330;-60
2024/01/02 04:15:42;;;;;;;10.50;4.20;;;;;;;2.56;100.00;98836.02;108617;1265;74131;-60
2024/01/02 04:18:30;;;;;;;11.50;5.00;;;;;;;2.53;100.00;98838.29;109064;1260;66795;-60
2024/01/02 04:21:18;;;;;;;14.20;5.20;;;;;;;2.51;100.00;98841.17;109025;1257;73452;-59
2024/01/02 04:24:06;;;;;;;12.90;5.50;;;;;;;2.50;100.00;98836.36;109071;1258;58935;-60
2024/01/02 04:26:53;;;;;;;13.80;5.30;;;;;;;2.49;100.00;98837.63;108250;1258;1002066;-59
2024/01/02 04:29:41;;;;;;;12.20;4.90;;;;;;;2.47;100.00;98837.09;109118;1258;72650;-59
2024/01/02 04:32:29;;;;;;;10.80;4.40;;;;;;;2.46;100.00;98838.91;109096;1257;66437;-60
2024/01/02 04:35:17;;;;;;;11.30;4.90;;;;;;;2.43;100.00;98833.13;109090;1257;72450;-60
2024/01/02 04:38:05;;;;;;;12.20;4.40;;;;;;;2.41;100.00;98837.83;109099;1260;58793;-60
2024/01/02 04:40:53;;;;;;;12.10;4.90;;;;;;;2.39;100.00;98840.93;109011;1257;61360;-60
2024/01/02 04:43:41;;;;;;;12.60;5.40;;;;;;;2.37;100.00;98836.13;109128;1260;73829;-60
2024/01/02 04:46:29;;;;;;;12.60;5.10;;;;;;;2.35;100.00;98839.73;108988;1258;66927;-60
2024/01/02 04:49:18;;;;;;;12.90;4.60;;;;;;;2.34;100.00;98835.59;109013;1259;71258;-60
2024/01/02 04:52:05;;;;;;;13.00;4.90;;;;;;;2.30;100.00;98832.35;109094;1258;59991;-60
2024/01/02 04:54:53;;;;;;;12.80;5.00;;;;;;;2.32;100.00;98840.48;109108;1258;61308;-60
2024/01/02 04:57:41;;;;;;;11.20;4.60;;;;;;;2.28;100.00;98835.98;109003;1258;72784;-60
2024/01/02 05:00:28;;;;;;;10.60;4.00;;;;;;;2.25;100.00;98836.39;109134;1259;67816;-60
2024/01/02 05:03:16;;;;;;;13.60;5.00;;;;;;;2.18;100.00;98835.06;109105;1258;73612;-60
2024/01/02 05:06:04;;;;;;;13.00;6.00;;;;;;;2.15;100.00;98837.48;109100;1257;58520;-62
2024/01/02 05:08:52;;;;;;;12.50;5.10;;;;;;;2.12;100.00;98836.30;109037;1259;60111;-61
2024/01/02 05:11:40;;;;;;;11.60;5.10;;;;;;;2.11;100.00;98842.50;109037;1257;73965;-60
2024/01/02 05:14:29;;;;;;;14.30;5.60;;;;;;;2.08;100.00;98842.15;109163;1259;66404;-59
2024/01/02 05:17:17;;;;;;;12.30;5.40;;;;;;;2.06;100.00;98840.85;109096;1259;73254;-59
2024/01/02 05:20:06;;;;;;;11.00;4.50;;;;;;;2.04;100.00;98839.21;109121;1259;59617;-61
2024/01/02 05:22:54;;;;;;;11.10;4.30;;;;;;;2.02;100.00;98844.39;108984;1257;59936;-62
2024/01/02 05:25:58;;;;;;;11.80;4.50;;;;;;;2.02;100.00;98845.83;109144;1257;73599;-60
2024/01/02 05:28:46;;;;;;;18.00;7.00;;;;;;;2.01;100.00;98848.31;109143;1258;67740;-60
2024/01/02 05:31:33;;;;;;;14.60;6.10;;;;;;;2.03;100.00;98850.66;109120;1258;72421;-62
2024/01/02 05:34:21;;;;;;;12.50;5.10;;;;;;;2.04;100.00;98850.96;109109;1258;58065;-60
2024/01/02 05:37:09;;;;;;;11.60;5.00;;;;;;;2.04;100.00;98852.15;109108;1258;60047;-59
2024/01/02 05:39:56;;;;;;;10.60;4.30;;;;;;;2.05;100.00;98852.13;109123;1258;73900;-61
2024/01/02 05:42:44;;;;;;;11.30;4.10;;;;;;;2.02;100.00;98844.81;108883;1258;66900;-62
2024/01/02 05:45:32;;;;;;;9.90;3.90;;;;;;;2.06;100.00;98844.21;109087;1258;72512;-63
2024/01/02 05:48:19;;;;;;;11.30;4.30;;;;;;;2.04;100.00;98846.43;108995;1259;58119;-61
2024/01/02 05:51:08;;;;;;;10.20;4.10;;;;;;;2.04;100.00;98849.39;108952;1257;61278;-61
2024/01/02 05:53:56;;;;;;;14.50;4.30;;;;;;;2.02;100.00;98847.89;109005;1259;74527;-62
2024/01/02 05:56:43;;;;;;;9.00;3.40;;;;;;;2.01;100.00;98847.44;109001;1258;69037;-62
2024/01/02 05:59:31;;;;;;;10.70;4.50;;;;;;;1.96;100.00;98847.59;109045;1258;72464;-60
2024/01/02 06:02:19;;;;;;;12.90;5.00;;;;;;;1.92;100.00;98847.66;108936;1259;58501;-61
2024/01/02 06:05:08;;;;;;;11.00;4.70;;;;;;;1.90;100.00;98853.04;108277;1259;1002316;-61
2024/01/02 06:07:56;;;;;;;11.80;4.30;;;;;;;1.88;100.00;98850.20;109116;1258;71697;-63
2024/01/02 06:10:44;;;;;;;10.60;4.30;;;;;;;1.90;100.00;98857.77;108989;1257;66291;-61
2024/01/02 06:13:32;;;;;;;11.00;4.70;;;;;;;1.92;100.00;98852.05;109053;1258;73651;-61
2024/01/02 06:16:20;;;;;;;11.90;5.10;;;;;;;1.94;100.00;98855.06;109093;1258;58735;-62
2024/01/02 06:19:08;;;;;;;11.50;4.60;;;;;;;1.92;100.00;98852.38;109117;1257;60315;-61
2024/01/02 06:21:56;;;;;;;13.10;4.70;;;;;;;1.91;100.00;98852.65;108796;1260;73633;-63
2024/01/02 06:24:47;;;;;;;10.30;4.60;;;;;;;1.91;100.00;98856.32;108964;1258;68628;-62
2024/01/02 06:27:36;;;;;;;12.20;4.50;;;;;;;1.92;100.00;98849.41;109060;1258;72560;-62
2024/01/02 06:30:23;;;;;;;10.60;4.00;;;;;;;1.91;100.00;98850.86;108918;1257;59800;-61
2024/01/02 06:33:12;;;;;;;9.30;4.30;;;;;;;1.89;100.00;98857.14;109064;1258;61599;-61
2024/01/02 06:35:59;;;;;;;9.40;3.90;;;;;;;1.86;100.00;98859.58;108960;1260;72291;-61
2024/01/02 06:38:48;;;;;;;11.00;4.10;;;;;;;1.80;100.00;98864.66;109081;1258;68611;-62
2024/01/02 06:41:35;;;;;;;10.10;3.50;;;;;;;1.77;100.00;98869.21;109067;1258;71354;-61
2024/01/02 06:44:23;;;;;;;9.30;4.20;;;;;;;1.77;100.00;98870.42;109093;1258;58480;-61
2024/01/02 06:47:12;;;;;;;9.70;3.80;;;;;;;1.80;100.00;98869.23;109090;1260;58212;-62
2024/01/02 06:49:59;;;;;;;12.40;5.00;;;;;;;1.80;100.00;98867.27;109100;1258;73946;-61
2024/01/02 06:52:47;;;;;;;12.90;4.90;;;;;;;1.79;100.00;98867.52;109129;1259;67710;-61
2024/01/02 06:55:35;;;;;;;10.70;4.50;;;;;;;1.77;100.00;98864.35;109057;1258;72284;-62
2024/01/02 06:58:23;;;;;;;13.80;5.90;;;;;;;1.73;100.00;98863.89;109113;1257;59497;-64
2024/01/02 07:01:15;;;;;;;12.50;6.00;;;;;;;1.68;100.00;98862.56;109102;1257;59113;-60
2024/01/02 07:04:03;;;;;;;12.70;5.90;;;;;;;1.67;100.00;98861.23;108952;1259;72446;-60
2024/01/02 07:06:52;;;;;;;12.60;6.40;;;;;;;1.66;100.00;98858.15;109066;1259;67364;-63
2024/01/02 07:09:40;;;;;;;11.30;5.20;;;;;;;1.67;100.00;98856.14;109130;1258;72609;-63
2024/01/02 07:12:28;;;;;;;11.40;5.20;;;;;;;1.69;100.00;98855.88;109090;1259;58281;-64
2024/01/02 07:15:16;;;;;;;11.10;4.80;;;;;;;1.71;100.00;98857.36;108933;1258;61196;-60
2024/01/02 07:18:04;;;;;;;10.30;4.40;;;;;;;1.68;100.00;98854.16;108978;1259;74804;-60
2024/01/02 07:20:53;;;;;;;11.00;4.40;;;;;;;1.65;100.00;98850.70;109120;1258;68800;-61
2024/01/02 07:23:41;;;;;;;8.50;3.70;;;;;;;1.63;100.00;98848.04;109101;1258;71526;-63
2024/01/02 07:26:28;;;;;;;10.00;4.30;;;;;;;1.59;100.00;98851.08;109072;1259;59565;-61
2024/01/02 07:29:16;;;;;;;10.50;4.10;;;;;;;1.55;100.00;98857.27;108962;1258;61763;-61
2024/01/02 07:32:05;;;;;;;11.90;4.60;;;;;;;1.50;100.00;98858.58;109053;1259;75603;-61
2024/01/02 07:34:52;;;;;;;10.20;4.40;;;;;;;1.48;100.00;98860.59;109103;1259;68085;-61
2024/01/02 07:37:40;;;;;;;10.40;4.70;;;;;;;1.48;100.00;98858.22;109018;1258;73787;-62
2024/01/02 07:40:28;;;;;;;11.00;4.40;;;;;;;1.47;100.00;98859.98;108981;1258;58731;-62
2024/01/02 07:43:16;;;;;;;10.20;4.10;;;;;;;1.44;100.00;98858.41;109106;1259;58748;-64
2024/01/02 07:46:04;;;;;;;11.40;4.60;;;;;;;1.41;100.00;98861.55;109026;1258;74546;-62
2024/01/02 07:48:53;;;;;;;11.20;5.00;;;;;;;1.42;100.00;98857.17;109029;1259;66790;-62
2024/01/02 07:51:40;;;;;;;10.90;4.60;;;;;;;1.41;100.00;98855.77;109001;1259;71449;-61
2024/01/02 07:54:28;;;;;;;12.80;5.70;;;;;;;1.40;100.00;98853.27;109111;1258;58785;-62
2024/01/02 07:57:16;;;;;;;11.50;5.40;;;;;;;1.36;100.00;98855.02;109107;1258;58927;-61
2024/01/02 08:00:04;;;;;;;9.40;4.50;;;;;;;1.34;100.00;98858.62;109096;1258;73742;-63
2024/01/02 08:02:58;;;;;;;10.00;4.20;;;;;;;1.31;100.00;98861.79;109047;1259;68735;-61
2024/01/02 08:05:47;;;;;;;10.30;4.10;;;;;;;1.32;100.00;98868.03;109020;1257;72683;-62
2024/01/02 08:08:35;;;;;;;9.70;4.60;;;;;;;1.32;100.00;98868.71;108970;1259;58883;-62
2024/01/02 08:11:25;;;;;;;8.90;4.00;;;;;;;1.29;100.00;98873.65;108983;1259;61068;-61
2024/01/02 08:14:14;;;;;;;8.20;3.70;;;;;;;1.30;100.00;98872.72;108864;1258;73512;-62
2024/01/02 08:17:02;;;;;;;10.70;4.30;;;;;;;1.26;100.00;98873.25;109064;1259;67665;-65
2024/01/02 08:19:51;;;;;;;10.60;5.10;;;;;;;1.23;100.00;98874.36;109001;1258;71644;-61
2024/01/02 08:22:39;;;;;;;9.60;4.40;;;;;;;1.22;100.00;98872.64;109089;1259;58122;-60
2024/01/02 08:25:27;;;;;;;9.90;4.90;;;;;;;1.18;100.00;98871.61;109077;1260;60243;-61
2024/01/02 08:28:15;;;;;;;13.70;6.20;;;;;;;1.17;100.00;98872.36;109085;1258;72509;-61
2024/01/02 08:31:03;;;;;;;11.10;5.60;;;;;;;1.18;100.00;98873.91;109128;1260;67745;-61
2024/01/02 08:33:51;;;;;;;10.40;5.50;;;;;;;1.17;100.00;98873.26;109036;1258;72555;-61
2024/01/02 08:36:39;;;;;;;10.10;5.00;;;;;;;1.18;100.00;98875.14;109069;1259;58456;-65
2024/01/02 08:39:26;;;;;;;11.40;5.10;;;;;;;1.19;100.00;98873.67;109114;1258;58723;-61
2024/01/02 08:42:14;;;;;;;10.30;4.30;;;;;;;1.21;100.00;98878.11;109084;1257;74622;-61
2024/01/02 08:45:06;;;;;;;10.90;4.70;;;;;;;1.22;100.00;98877.91;108956;1257;67882;-62
2024/01/02 08:47:54;;;;;;;11.10;4.80;;;;;;;1.24;100.00;98877.45;109037;1257;72719;-61
2024/01/02 08:50:43;;;;;;;10.90;4.30;;;;;;;1.23;100.00;98872.61;109058;1257;58137;-61
2024/01/02 08:53:32;;;;;;;11.20;5.20;;;;;;;1.21;100.00;98870.08;109097;1258;58804;-61
2024/01/02 08:56:21;;;;;;;9.60;4.70;;;;;;;1.17;100.00;98870.27;108980;1258;73944;-62
2024/01/02 08:59:08;;;;;;;10.70;4.70;;;;;;;1.14;100.00;98869.59;109104;1257;66747;-62
2024/01/02 09:01:57;;;;;;;10.00;4.50;;;;;;;1.13;100.00;98870.72;108987;1257;72378;-62
2024/01/02 09:04:45;;;;;;;11.80;4.60;;;;;;;1.12;100.00;98871.98;109096;1257;58078;-63
2024/01/02 09:07:32;;;;;;;13.30;5.90;;;;;;;1.14;100.00;98874.33;109140;1257;58824;-61
2024/01/02 09:10:23;;;;;;;9.90;4.10;;;;;;;1.15;100.00;98873.71;109116;1257;73837;-63
2024/01/02 09:13:12;;;;;;;10.90;5.40;;;;;;;1.13;100.00;98870.86;109087;1257;68668;-63
2024/01/02 09:16:00;;;;;;;11.70;5.30;;;;;;;1.14;100.00;98869.94;109031;1257;73750;-63
2024/01/02 09:18:48;;;;;;;11.70;5.50;;;;;;;1.14;100.00;98870.45;109091;1257;59765;-61
2024/01/02 09:21:36;;;;;;;12.40;5.40;;;;;;;1.13;100.00;98863.20;109093;1257;60036;-66
2024/01/02 09:24:24;;;;;;;10.90;5.10;;;;;;;1.15;100.00;98863.42;109045;1257;72810;-61
2024/01/02 09:27:14;;;;;;;11.40;5.30;;;;;;;1.11;100.00;98861.52;108962;1259;68901;-60
2024/01/02 09:30:04;;;;;;;10.10;4.80;;;;;;;1.17;100.00;98863.13;109011;1257;71641;-61
2024/01/02 09:32:52;;;;;;;12.20;5.60;;;;;;;1.17;100.00;98863.28;109079;1257;58186;-63
2024/01/02 09:35:42;;;;;;;9.60;5.10;;;;;;;1.19;100.00;98864.95;109063;1257;58731;-62
2024/01/02 09:38:30;;;;;;;10.00;3.90;;;;;;;1.20;100.00;98866.64;108958;1258;73592;-61
2024/01/02 09:41:54;;;;;;;11.60;4.50;;;;;;;1.22;100.00;98868.13;109096;1257;67825;-63
2024/01/02 09:45:09;;;;;;;11.80;5.20;;;;;;;1.22;100.00;98868.27;109066;1259;73862;-63
2024/01/02 09:48:37;;;;;;;12.10;5.10;;;;;;;1.23;100.00;98866.50;109096;1257;58117;-64
2024/01/02 09:52:00;;;;;;;12.20;5.50;;;;;;;1.23;100.00;98864.56;108958;1258;61654;-62
2024/01/02 09:55:06;;;;;;;11.20;4.80;;;;;;;1.32;100.00;98857.70;109028;1259;73757;-63
2024/01/02 09:58:34;;;;;;;9.50;4.10;;;;;;;1.43;100.00;98851.82;108985;1259;67637;-63
2024/01/02 10:01:57;;;;;;;11.70;5.30;;;;;;;1.59;100.00;98853.85;108880;1259;72766;-64
2024/01/02 10:05:08;;;;;;;12.30;6.00;;;;;;;1.63;100.00;98856.23;108922;1259;59517;-62
2024/01/02 10:08:15;;;;;;;11.20;5.10;;;;;;;1.64;100.00;98859.14;108996;1260;60293;-60
2024/01/02 10:11:24;;;;;;;12.50;5.90;;;;;;;1.64;100.00;98851.11;109059;1259;74242;-64
2024/01/02 10:14:27;;;;;;;13.00;5.90;;;;;;;1.65;100.00;98850.02;109053;1259;68246;-63
2024/01/02 10:17:47;;;;;;;13.00;6.00;;;;;;;1.65;100.00;98846.48;108300;1259;1002401;-62
2024/01/02 10:21:29;;;;;;;12.50;5.50;;;;;;;1.64;100.00;98842.17;109000;1259;58197;-63
2024/01/02 10:24:37;;;;;;;11.60;5.40;;;;;;;1.62;100.00;98828.89;109024;1260;60061;-66
2024/01/02 10:28:18;;;;;;;11.00;5.20;;;;;;;1.68;100.00;98825.85;109022;1259;74544;-61
2024/01/02 10:31:26;;;;;;;11.00;5.50;;;;;;;1.76;100.00;98819.29;109001;1259;66323;-64
2024/01/02 10:35:03;;;;;;;10.50;4.70;;;;;;;1.81;100.00;98814.91;109028;1259;71217;-61
2024/01/02 10:38:03;;;;;;;10.20;4.90;;;;;;;1.85;100.00;98809.11;108515;1267;58538;-64
2024/01/02 10:41:06;;;;;;;11.10;5.20;;;;;;;1.88;100.00;98810.69;108557;1267;60288;-64
2024/01/02 10:44:22;;;;;;;13.90;6.40;;;;;;;1.88;100.00;98800.86;108465;1268;74300;-64
2024/01/02 10:47:26;;;;;;;12.20;5.60;;;;;;;1.86;100.00;98794.49;108449;1267;69056;-63
2024/01/02 10:50:23;;;;;;;10.10;4.80;;;;;;;1.84;100.00;98793.95;108538;1267;73068;-61
2024/01/02 10:54:05;;;;;;;13.00;5.70;;;;;;;1.84;100.00;98791.31;108511;1267;58715;-63
2024/01/02 10:57:00;;;;;;;11.20;4.60;;;;;;;1.82;100.00;98785.31;107877;1277;61152;-62
2024/01/02 11:00:07;;;;;;;12.20;5.60;;;;;;;1.82;100.00;98788.61;107997;1271;74599;-62
2024/01/02 11:03:15;;;;;;;12.20;5.40;;;;;;;1.80;100.00;98792.77;107811;1272;68773;-62
2024/01/02 11:06:25;;;;;;;10.10;4.80;;;;;;;1.79;100.00;98797.56;107774;1272;70932;-63
2024/01/02 11:09:29;;;;;;;13.10;6.20;;;;;;;1.80;100.00;98797.87;108068;1271;58213;-62
2024/01/02 11:12:19;;;;;;;13.00;6.20;;;;;;;1.81;100.00;98791.46;107930;1272;58308;-64
2024/01/02 11:15:11;;;;;;;11.80;5.40;;;;;;;1.83;100.00;98789.80;108329;1267;73252;-62
2024/01/02 11:18:03;;;;;;;14.70;7.00;;;;;;;1.82;100.00;98782.31;108485;1267;68663;-63
2024/01/02 11:21:02;;;;;;;18.80;8.10;;;;;;;1.85;100.00;98781.98;108095;1270;72742;-62
2024/01/02 11:23:55;;;;;;;16.10;7.50;;;;;;;1.88;100.00;98778.83;108118;1271;59092;-61
2024/01/02 11:26:45;;;;;;;11.30;5.70;;;;;;;1.90;100.00;98775.88;108149;1270;60068;-61
2024/01/02 11:29:36;;;;;;;12.80;5.70;;;;;;;1.90;100.00;98770.34;108179;1270;74743;-63
2024/01/02 11:33:05;;;;;;;10.30;4.30;;;;;;;1.89;100.00;98764.26;108570;1264;68982;-65
2024/01/02 11:36:28;;;;;;;13.10;5.90;;;;;;;1.83;100.00;98762.52;108678;1264;73395;-63
2024/01/02 11:39:22;;;;;;;13.70;6.80;;;;;;;1.81;100.00;98756.66;107971;1264;1002176;-63
2024/01/02 11:42:44;;;;;;;14.50;7.20;;;;;;;1.82;100.00;98755.77;108657;1264;60070;-64
2024/01/02 11:45:36;;;;;;;12.20;5.50;;;;;;;1.82;100.00;98752.25;108508;1264;73762;-61
2024/01/02 11:48:51;;;;;;;13.20;6.40;;;;;;;1.83;100.00;98749.03;108646;1264;68122;-63
2024/01/02 11:51:47;;;;;;;14.70;6.80;;;;;;;1.84;100.00;98743.90;108721;1260;73885;-63
2024/01/02 11:54:59;;;;;;;18.50;7.60;;;;;;;1.86;100.00;98743.95;108747;1260;59910;-62
2024/01/02 11:57:52;;;;;;;17.70;8.20;;;;;;;1.90;100.00;98741.48;108946;1259;60495;-63
2024/01/02 12:01:18;;;;;;;18.10;9.30;;;;;;;1.94;100.00;98734.70;108986;1258;72422;-61
2024/01/02 12:04:13;;;;;;;17.30;8.50;;;;;;;1.98;100.00;98739.02;108902;1258;69084;-63
2024/01/02 12:07:24;;;;;;;17.50;9.20;;;;;;;1.99;100.00;98738.79;108980;1258;72882;-62
2024/01/02 12:10:13;;;;;;;22.90;10.90;;;;;;;2.01;100.00;98737.77;109008;1259;58462;-64
2024/01/02 12:13:17;;;;;;;21.00;9.10;;;;;;;2.03;100.00;98732.40;108995;1260;61145;-62
2024/01/02 12:16:09;;;;;;;25.10;11.80;;;;;;;2.08;100.00;98739.61;108945;1260;73901;-63
2024/01/02 12:19:01;;;;;;;28.70;15.10;;;;;;;2.09;100.00;98738.84;108293;1258;1002611;-63
2024/01/02 12:21:54;;;;;;;25.20;12.40;;;;;;;2.08;100.00;98739.99;108995;1259;73691;-62
2024/01/02 12:24:43;;;;;;;30.90;14.40;;;;;;;2.03;100.00;98737.13;108996;1259;58494;-62
2024/01/02 12:27:33;;;;;;;29.60;12.60;;;;;;;2.01;100.00;98739.70;108939;1258;60193;-64
2024/01/02 12:30:41;;;;;;;26.30;12.20;;;;;;;2.04;100.00;98739.82;108971;1259;72986;-62
2024/01/02 12:33:39;;;;;;;28.30;12.70;;;;;;;2.07;100.00;98738.45;108949;1259;68896;-65
2024/01/02 12:36:42;;;;;;;27.90;13.90;;;;;;;2.04;100.00;98726.02;108993;1259;73874;-63
2024/01/02 12:39:38;;;;;;;27.40;13.30;;;;;;;2.14;100.00;98729.95;108939;1260;58169;-63
2024/01/02 12:42:29;;;;;;;25.40;11.80;;;;;;;2.17;100.00;98729.78;108984;1260;60496;-61
2024/01/02 12:45:22;;;;;;;26.40;12.00;;;;;;;2.20;100.00;98727.98;109027;1257;73746;-62
2024/01/02 12:48:10;;;;;;;28.40;13.50;;;;;;;2.21;100.00;98725.46;108983;1260;68913;-62
2024/01/02 12:50:59;;;;;;;26.00;12.10;;;;;;;2.21;100.00;98726.14;108862;1259;72735;-62
2024/01/02 12:53:51;;;;;;;21.60;10.40;;;;;;;2.19;100.00;98730.48;108909;1259;58192;-62
2024/01/02 12:56:46;;;;;;;26.80;11.40;;;;;;;2.17;100.00;98725.23;109040;1259;61839;-62
2024/01/02 12:59:36;;;;;;;26.50;11.80;;;;;;;2.14;100.00;98721.06;108877;1258;73831;-62
2024/01/02 13:02:24;;;;;;;29.00;13.70;;;;;;;2.09;100.00;98714.85;109036;1258;68932;-62
2024/01/02 13:05:14;;;;;;;26.00;11.00;;;;;;;2.06;100.00;98718.04;109001;1260;72315;-62
2024/01/02 13:08:05;;;;;;;28.40;13.20;;;;;;;1.99;100.00;98708.85;108965;1259;58509;-62